Time;durP1;ratioP1;P1;durP2;ratioP2;P2;SDS_P1;SDS_P2;PMS_P1;PMS_P2;Temp;Humidity;BMP_temperature;BMP_pressure;BME280_temperature;BME280_humidity;BME280_pressure;Samples;Min_cycle;Max_cycle;Signal;HPM_P1;HPM_P2
2024/01/26 00:01:50;;;;;;;1.57;1.33;;;10.40;38.60;;;;;;5093588;28;20538;-52
2024/01/26 00:04:16;;;;;;;1.00;0.40;;;10.40;38.70;;;;;;5093972;28;20669;-48
2024/01/26 00:06:42;;;;;;;1.97;0.90;;;10.40;38.70;;;;;;5094109;28;20656;-48
2024/01/26 00:09:10;;;;;;;1.50;1.23;;;10.40;38.60;;;;;;5093909;28;20633;-48
2024/01/26 00:11:37;;;;;;;1.55;0.85;;;10.40;38.60;;;;;;5093695;28;20188;-47
2024/01/26 00:14:03;;;;;;;4.93;1.05;;;10.40;38.50;;;;;;5093898;28;20204;-51
2024/01/26 00:16:29;;;;;;;0.80;0.40;;;10.30;38.60;;;;;;5094042;28;20169;-52
2024/01/26 00:18:54;;;;;;;1.03;0.77;;;10.30;38.50;;;;;;5093653;28;20691;-45
2024/01/26 00:21:20;;;;;;;0.90;0.40;;;10.40;38.60;;;;;;5093545;28;20176;-53
2024/01/26 00:23:46;;;;;;;3.33;1.57;;;10.40;38.60;;;;;;5093821;28;20200;-53
2024/01/26 00:26:15;;;;;;;1.97;1.43;;;10.40;38.60;;;;;;5093911;28;20652;-46
2024/01/26 00:28:41;;;;;;;2.03;1.10;;;10.40;38.50;;;;;;5093955;28;20597;-47
2024/01/26 00:31:07;;;;;;;8.50;2.93;;;10.40;38.50;;;;;;5093119;28;20208;-50
2024/01/26 00:33:34;;;;;;;4.30;0.95;;;10.40;38.40;;;;;;5093076;28;20472;-45
2024/01/26 00:35:59;;;;;;;2.30;1.02;;;10.40;38.40;;;;;;5093714;28;20184;-48
2024/01/26 00:38:25;;;;;;;29.97;1.20;;;10.40;38.30;;;;;;5093540;28;20172;-51
2024/01/26 00:40:51;;;;;;;1.43;0.93;;;10.40;38.40;;;;;;5092903;28;20406;-48
2024/01/26 00:43:18;;;;;;;0.90;0.40;;;10.40;38.30;;;;;;5093362;28;20265;-48
2024/01/26 00:45:43;;;;;;;7.85;2.83;;;10.40;38.30;;;;;;5093444;28;20176;-48
2024/01/26 00:48:09;;;;;;;1.10;0.60;;;10.50;38.40;;;;;;5093264;28;20638;-51
2024/01/26 00:50:35;;;;;;;15.40;2.20;;;10.50;38.30;;;;;;5093086;28;20208;-52
2024/01/26 00:53:01;;;;;;;1.80;1.35;;;10.40;38.10;;;;;;5092205;28;20671;-47
2024/01/26 00:55:29;;;;;;;3.10;1.40;;;10.40;38.20;;;;;;5093288;28;20266;-50
2024/01/26 00:57:58;;;;;;;1.90;0.95;;;10.50;38.30;;;;;;5093038;28;20176;-47
2024/01/26 01:00:24;;;;;;;0.95;0.52;;;10.40;38.10;;;;;;5093355;28;20200;-51
2024/01/26 01:02:51;;;;;;;8.13;0.95;;;10.40;38.10;;;;;;5092572;28;20188;-51
2024/01/26 01:05:17;;;;;;;2.20;0.95;;;10.40;38.10;;;;;;5092809;28;20247;-50
2024/01/26 01:07:43;;;;;;;2.03;1.25;;;10.40;38.10;;;;;;5093169;28;20177;-55
2024/01/26 01:10:10;;;;;;;3.95;1.35;;;10.40;38.10;;;;;;5092987;28;20172;-53
2024/01/26 01:12:40;;;;;;;6.10;1.27;;;10.40;38.10;;;;;;5092186;28;20685;-46
2024/01/26 01:15:11;;;;;;;1.00;0.60;;;10.30;38.10;;;;;;5092661;28;20562;-50
2024/01/26 01:17:37;;;;;;;4.18;1.08;;;10.30;38.10;;;;;;5092686;28;20180;-49
2024/01/26 01:20:04;;;;;;;4.60;1.83;;;10.20;37.90;;;;;;5092572;28;20757;-48
2024/01/26 01:22:30;;;;;;;1.90;0.85;;;10.10;37.90;;;;;;5092240;28;20241;-51
2024/01/26 01:24:56;;;;;;;1.23;0.65;;;10.00;38.00;;;;;;5092570;28;20188;-51
2024/01/26 01:27:22;;;;;;;1.50;1.17;;;9.80;38.10;;;;;;5092552;28;20180;-47
2024/01/26 01:29:47;;;;;;;1.47;1.23;;;9.80;38.10;;;;;;5092495;28;20209;-52
2024/01/26 01:32:13;;;;;;;1.80;1.70;;;9.70;38.10;;;;;;5091803;28;20221;-50
2024/01/26 01:34:39;;;;;;;1.97;1.20;;;9.60;38.20;;;;;;5092496;28;20200;-47
2024/01/26 01:37:05;;;;;;;3.20;1.67;;;9.50;38.30;;;;;;5092295;28;20415;-48
2024/01/26 01:39:31;;;;;;;2.30;1.03;;;9.50;38.40;;;;;;5092648;28;20286;-55
2024/01/26 01:41:57;;;;;;;1.87;1.20;;;9.40;38.40;;;;;;5091767;28;20411;-46
2024/01/26 01:44:22;;;;;;;0.90;0.40;;;9.40;38.40;;;;;;5092258;28;20203;-47
2024/01/26 01:46:48;;;;;;;13.93;1.20;;;9.40;38.40;;;;;;5092045;28;20187;-51
2024/01/26 01:49:14;;;;;;;1.57;1.23;;;9.40;38.40;;;;;;5092187;28;20275;-48
2024/01/26 01:51:45;;;;;;;1.03;0.83;;;9.40;38.40;;;;;;5091677;28;20187;-51
2024/01/26 01:54:12;;;;;;;0.90;0.40;;;9.30;38.30;;;;;;5092065;28;20231;-49
2024/01/26 01:56:39;;;;;;;0.90;0.47;;;9.30;38.30;;;;;;5092400;28;20168;-46
2024/01/26 01:59:05;;;;;;;1.40;0.95;;;9.20;38.40;;;;;;5091987;28;20181;-47
2024/01/26 02:01:31;;;;;;;1.70;0.93;;;9.20;38.40;;;;;;5091489;28;20225;-49
2024/01/26 02:04:01;;;;;;;6.10;3.33;;;9.20;38.30;;;;;;5092034;28;20200;-48
2024/01/26 02:06:27;;;;;;;1.10;0.77;;;9.20;38.10;;;;;;5091791;28;20406;-48
2024/01/26 02:08:53;;;;;;;0.90;0.50;;;9.00;38.10;;;;;;5091931;28;20187;-52
2024/01/26 02:11:18;;;;;;;1.10;0.50;;;9.00;38.20;;;;;;5091487;28;20500;-45
2024/01/26 02:13:44;;;;;;;1.00;0.87;;;8.80;38.30;;;;;;5091629;28;20200;-49
2024/01/26 02:16:10;;;;;;;1.67;0.67;;;8.70;38.30;;;;;;5091862;28;20169;-51
2024/01/26 02:18:36;;;;;;;1.43;0.47;;;8.60;38.40;;;;;;5091906;28;20261;-45
2024/01/26 02:21:02;;;;;;;1.10;0.50;;;8.50;38.50;;;;;;5091467;28;20200;-51
2024/01/26 02:23:27;;;;;;;1.43;0.40;;;8.40;38.60;;;;;;5091654;28;20473;-45
2024/01/26 02:25:53;;;;;;;1.70;1.60;;;8.40;38.90;;;;;;5091846;28;20436;-44
2024/01/26 02:28:19;;;;;;;1.83;1.33;;;8.40;38.80;;;;;;5091880;28;20172;-52
2024/01/26 02:30:45;;;;;;;2.55;1.88;;;8.30;38.80;;;;;;5091411;28;20309;-54
2024/01/26 02:33:11;;;;;;;0.93;0.40;;;8.30;38.70;;;;;;5091205;28;20348;-46
2024/01/26 02:35:37;;;;;;;1.00;0.47;;;8.30;38.80;;;;;;5091789;28;20418;-48
2024/01/26 02:38:02;;;;;;;4.93;0.80;;;8.20;38.60;;;;;;5091943;28;20409;-49
2024/01/26 02:40:29;;;;;;;1.20;0.83;;;8.10;38.70;;;;;;5091795;28;20169;-48
2024/01/26 02:42:55;;;;;;;1.45;0.70;;;8.00;38.80;;;;;;5090990;28;20204;-48
2024/01/26 02:45:23;;;;;;;1.67;1.58;;;7.90;38.80;;;;;;5091745;28;20233;-51
2024/01/26 02:47:49;;;;;;;0.90;0.50;;;7.90;38.90;;;;;;5091588;28;20172;-47
2024/01/26 02:50:15;;;;;;;1.00;0.53;;;7.90;39.00;;;;;;5090333;28;20195;-47
2024/01/26 02:52:41;;;;;;;8.73;1.13;;;7.80;39.00;;;;;;5091221;28;20196;-52
2024/01/26 02:55:06;;;;;;;1.33;1.23;;;7.80;39.00;;;;;;5091321;28;20554;-48
2024/01/26 02:57:32;;;;;;;0.90;0.50;;;7.70;39.10;;;;;;5091474;28;20183;-49
2024/01/26 02:59:58;;;;;;;1.30;0.70;;;7.60;39.20;;;;;;5091612;28;20421;-47
2024/01/26 03:02:23;;;;;;;1.30;0.77;;;7.60;39.40;;;;;;5091144;28;20173;-48
2024/01/26 03:04:49;;;;;;;1.50;1.30;;;7.60;39.50;;;;;;5091547;28;20177;-45
2024/01/26 03:07:15;;;;;;;1.17;0.60;;;7.50;39.50;;;;;;5091729;28;20662;-51
2024/01/26 03:09:41;;;;;;;0.80;0.20;;;7.50;39.50;;;;;;5091792;28;20169;-51
2024/01/26 03:12:07;;;;;;;1.80;0.95;;;7.50;39.60;;;;;;5091098;28;20501;-46
2024/01/26 03:14:33;;;;;;;2.30;0.77;;;7.50;39.60;;;;;;5091069;28;20717;-53
2024/01/26 03:16:58;;;;;;;1.47;0.97;;;7.50;39.60;;;;;;5093781;28;20537;-45
2024/01/26 03:19:24;;;;;;;1.00;0.83;;;7.40;39.50;;;;;;5095054;28;20814;-44
2024/01/26 03:21:50;;;;;;;3.23;1.17;;;7.40;39.60;;;;;;5094533;28;20169;-50
2024/01/26 03:24:15;;;;;;;1.67;0.80;;;7.40;39.80;;;;;;5094839;28;20192;-52
2024/01/26 03:26:41;;;;;;;1.37;1.20;;;7.50;40.10;;;;;;5094921;28;20598;-47
2024/01/26 03:29:07;;;;;;;1.20;0.87;;;7.40;40.10;;;;;;5094748;28;20185;-53
2024/01/26 03:31:33;;;;;;;0.90;0.40;;;7.40;39.90;;;;;;5094367;28;20184;-49
2024/01/26 03:33:59;;;;;;;0.80;0.30;;;7.40;39.80;;;;;;5094364;28;20515;-52
2024/01/26 03:36:25;;;;;;;1.73;0.87;;;7.40;40.00;;;;;;5094698;28;20169;-52
2024/01/26 03:38:50;;;;;;;1.08;0.50;;;7.30;40.20;;;;;;5094610;28;20175;-45
2024/01/26 03:41:16;;;;;;;4.50;2.13;;;7.30;40.20;;;;;;5094116;28;20168;-48
2024/01/26 03:43:42;;;;;;;1.00;0.80;;;7.30;40.30;;;;;;5094315;28;20295;-47
2024/01/26 03:46:08;;;;;;;2.20;1.13;;;7.30;40.20;;;;;;5094416;28;20176;-47
2024/01/26 03:48:33;;;;;;;1.67;0.97;;;7.40;40.10;;;;;;5094788;28;20229;-52
2024/01/26 03:51:00;;;;;;;1.27;0.70;;;7.30;40.20;;;;;;5094000;28;20414;-47
2024/01/26 03:53:25;;;;;;;1.13;0.85;;;7.30;40.20;;;;;;5094271;28;20196;-47
2024/01/26 03:55:54;;;;;;;0.90;0.40;;;7.30;40.50;;;;;;5094316;28;20247;-49
2024/01/26 03:58:20;;;;;;;1.30;0.98;;;7.30;40.60;;;;;;5094158;28;20260;-48
2024/01/26 04:00:46;;;;;;;2.67;2.47;;;7.40;40.50;;;;;;5093949;28;20237;-47
2024/01/26 04:03:12;;;;;;;6.90;2.20;;;7.40;40.60;;;;;;5094104;28;20668;-48
2024/01/26 04:05:37;;;;;;;1.43;1.23;;;7.40;40.50;;;;;;5094539;28;20172;-54
2024/01/26 04:08:03;;;;;;;0.80;0.30;;;7.50;40.60;;;;;;5094311;28;20184;-45
2024/01/26 04:10:30;;;;;;;1.00;0.82;;;7.50;40.60;;;;;;5093904;28;20452;-44
2024/01/26 04:12:56;;;;;;;0.80;0.40;;;7.50;40.60;;;;;;5093529;28;20290;-54
2024/01/26 04:15:22;;;;;;;2.95;1.83;;;7.50;40.70;;;;;;5093743;28;20700;-47
2024/01/26 04:17:48;;;;;;;1.20;0.70;;;7.50;40.80;;;;;;5094289;28;20249;-50
2024/01/26 04:20:14;;;;;;;1.57;0.90;;;7.60;40.80;;;;;;5093695;28;20411;-48
2024/01/26 04:22:41;;;;;;;2.33;1.07;;;7.60;40.60;;;;;;5093290;28;20431;-50
2024/01/26 04:25:07;;;;;;;1.10;0.70;;;7.70;40.90;;;;;;5093555;28;20518;-50
2024/01/26 04:27:33;;;;;;;0.90;0.50;;;7.70;40.90;;;;;;5092934;28;20229;-47
2024/01/26 04:29:58;;;;;;;0.90;0.30;;;7.70;40.90;;;;;;5093652;28;20180;-46
2024/01/26 04:32:24;;;;;;;1.30;0.70;;;7.80;40.90;;;;;;5092952;28;20183;-53
2024/01/26 04:34:50;;;;;;;3.57;1.37;;;7.80;40.90;;;;;;5093816;28;20199;-46
2024/01/26 04:37:16;;;;;;;1.60;1.50;;;7.80;40.90;;;;;;5093838;28;20410;-47
2024/01/26 04:39:42;;;;;;;0.80;0.30;;;7.80;41.00;;;;;;5093719;28;20256;-53
2024/01/26 04:42:08;;;;;;;0.90;0.50;;;7.90;41.00;;;;;;5092896;28;20229;-45
2024/01/26 04:44:37;;;;;;;1.38;0.90;;;7.90;41.10;;;;;;5093571;28;20201;-49
2024/01/26 04:47:02;;;;;;;0.90;0.45;;;7.90;41.10;;;;;;5093221;28;20195;-50
2024/01/26 04:49:28;;;;;;;0.80;0.37;;;7.90;41.00;;;;;;5093574;28;20188;-49
2024/01/26 04:51:54;;;;;;;3.37;1.60;;;8.00;41.00;;;;;;5092938;28;20426;-46
2024/01/26 04:54:20;;;;;;;1.10;0.77;;;8.00;40.90;;;;;;5092891;28;20768;-47
2024/01/26 04:56:45;;;;;;;14.53;0.93;;;8.00;41.00;;;;;;5093153;28;20176;-49
2024/01/26 04:59:11;;;;;;;0.80;0.30;;;8.00;40.90;;;;;;5093224;28;20168;-46
2024/01/26 05:01:37;;;;;;;1.13;0.87;;;8.10;41.00;;;;;;5092539;28;20180;-47
2024/01/26 05:04:06;;;;;;;1.13;1.03;;;8.10;40.80;;;;;;5092841;28;20677;-55
2024/01/26 05:06:32;;;;;;;2.83;2.30;;;8.10;40.90;;;;;;5092969;28;20187;-47
2024/01/26 05:08:57;;;;;;;1.27;1.17;;;8.10;41.00;;;;;;5092755;28;20180;-45
2024/01/26 05:11:23;;;;;;;1.20;0.80;;;8.10;41.00;;;;;;5092682;28;20192;-50
2024/01/26 05:13:49;;;;;;;1.20;0.57;;;8.10;41.00;;;;;;5092743;28;20454;-47
2024/01/26 05:16:14;;;;;;;7.63;3.07;;;8.10;40.90;;;;;;5092967;28;20172;-49
2024/01/26 05:18:40;;;;;;;1.83;1.30;;;8.10;40.90;;;;;;5092790;28;20508;-46
2024/01/26 05:21:06;;;;;;;1.20;0.50;;;8.20;41.00;;;;;;5092115;28;20218;-44
2024/01/26 05:23:32;;;;;;;1.53;1.20;;;8.20;41.00;;;;;;5092501;28;20200;-49
2024/01/26 05:25:58;;;;;;;2.30;1.50;;;8.20;41.00;;;;;;5092813;28;20402;-46
2024/01/26 05:28:24;;;;;;;1.33;1.17;;;8.20;40.90;;;;;;5092915;28;20581;-45
2024/01/26 05:30:50;;;;;;;1.00;0.63;;;8.20;40.90;;;;;;5092366;28;20503;-49
2024/01/26 05:33:16;;;;;;;5.30;3.40;;;8.30;41.20;;;;;;5092295;28;20287;-46
2024/01/26 05:35:42;;;;;;;2.00;1.63;;;8.30;41.30;;;;;;5092583;28;20464;-51
2024/01/26 05:38:08;;;;;;;11.55;1.42;;;8.20;41.20;;;;;;5092225;28;20460;-53
2024/01/26 05:40:33;;;;;;;5.57;2.30;;;8.20;41.20;;;;;;5091392;28;20177;-47
2024/01/26 05:42:59;;;;;;;0.90;0.50;;;8.30;41.30;;;;;;5091793;28;20257;-50
2024/01/26 05:45:25;;;;;;;2.03;1.87;;;8.30;42.10;;;;;;5092581;28;20172;-45
2024/01/26 05:47:51;;;;;;;1.13;0.70;;;8.30;41.50;;;;;;5092571;28;20271;-48
2024/01/26 05:50:19;;;;;;;1.30;0.90;;;8.30;41.40;;;;;;5092347;28;20425;-53
2024/01/26 05:52:45;;;;;;;2.17;0.82;;;8.40;41.30;;;;;;5091791;28;20220;-49
2024/01/26 05:55:11;;;;;;;2.60;1.27;;;8.40;41.30;;;;;;5092274;28;20207;-51
2024/01/26 05:57:37;;;;;;;2.92;2.10;;;8.40;41.40;;;;;;5092254;28;20171;-44
2024/01/26 06:00:03;;;;;;;1.47;0.83;;;8.40;41.50;;;;;;5092005;28;20660;-50
2024/01/26 06:02:30;;;;;;;1.00;0.73;;;8.40;41.60;;;;;;5091728;28;20171;-49
2024/01/26 06:04:56;;;;;;;1.33;0.95;;;8.40;41.70;;;;;;5091899;28;20191;-45
2024/01/26 06:07:21;;;;;;;0.90;0.70;;;8.40;41.70;;;;;;5091952;28;20242;-52
2024/01/26 06:09:47;;;;;;;0.90;0.50;;;8.40;41.70;;;;;;5092043;28;20164;-54
2024/01/26 06:12:13;;;;;;;1.60;1.50;;;8.40;41.60;;;;;;5091360;28;20183;-46
2024/01/26 06:14:39;;;;;;;2.20;0.97;;;8.40;41.50;;;;;;5091839;28;20192;-49
2024/01/26 06:17:04;;;;;;;1.73;1.27;;;8.40;41.60;;;;;;5091929;28;20178;-47
2024/01/26 06:19:30;;;;;;;1.50;0.73;;;8.50;41.50;;;;;;5091830;28;20214;-49
2024/01/26 06:21:56;;;;;;;1.33;1.03;;;8.60;41.50;;;;;;5091255;28;20176;-52
2024/01/26 06:24:21;;;;;;;2.60;1.97;;;8.60;41.40;;;;;;5091906;28;20333;-46
2024/01/26 06:26:47;;;;;;;5.83;1.93;;;8.60;41.30;;;;;;5092016;28;20263;-51
2024/01/26 06:29:13;;;;;;;1.83;1.23;;;8.70;41.30;;;;;;5091746;28;20661;-46
2024/01/26 06:31:38;;;;;;;1.63;0.90;;;8.70;41.40;;;;;;5091365;28;20175;-51
2024/01/26 06:34:04;;;;;;;1.60;1.50;;;8.70;41.30;;;;;;5091501;28;20208;-46
2024/01/26 06:36:30;;;;;;;1.10;0.90;;;8.70;41.20;;;;;;5091908;28;20168;-53
2024/01/26 06:38:56;;;;;;;0.90;0.40;;;8.70;41.10;;;;;;5091615;28;20172;-46
2024/01/26 06:41:21;;;;;;;1.10;0.87;;;8.80;41.10;;;;;;5091465;28;20251;-48
2024/01/26 06:43:51;;;;;;;1.37;1.13;;;8.80;41.10;;;;;;5091751;28;20210;-50
2024/01/26 06:46:23;;;;;;;1.42;1.15;;;8.80;41.10;;;;;;5091695;28;20547;-47
2024/01/26 06:48:49;;;;;;;3.85;1.80;;;8.90;41.00;;;;;;5091780;28;20180;-46
2024/01/26 06:51:15;;;;;;;0.80;0.35;;;8.90;40.90;;;;;;5092324;28;20251;-46
2024/01/26 06:53:41;;;;;;;8.98;2.50;;;8.80;40.80;;;;;;5095220;28;20204;-54
2024/01/26 06:56:07;;;;;;;9.20;2.20;;;8.90;41.00;;;;;;5095614;28;20165;-53
2024/01/26 06:58:33;;;;;;;9.43;1.42;;;8.90;41.00;;;;;;5095539;28;20263;-47
2024/01/26 07:01:00;;;;;;;1.10;0.90;;;8.90;41.10;;;;;;5094888;28;20271;-46
2024/01/26 07:03:26;;;;;;;1.38;1.13;;;8.90;41.10;;;;;;5095146;28;20189;-46
2024/01/26 07:05:52;;;;;;;3.47;1.35;;;8.90;40.90;;;;;;5095303;28;20965;-47
2024/01/26 07:08:18;;;;;;;1.30;0.90;;;8.90;40.80;;;;;;5095333;28;20169;-52
2024/01/26 07:10:44;;;;;;;1.33;0.97;;;8.90;40.90;;;;;;5093481;28;20270;-54
2024/01/26 07:13:09;;;;;;;3.35;0.93;;;9.00;41.00;;;;;;5095070;28;20599;-46
2024/01/26 07:15:35;;;;;;;0.80;0.33;;;9.00;41.00;;;;;;5095014;28;20239;-53
2024/01/26 07:18:02;;;;;;;1.90;1.60;;;9.00;41.10;;;;;;5094956;28;20608;-46
2024/01/26 07:20:28;;;;;;;1.30;0.80;;;9.00;41.00;;;;;;5094986;28;20267;-50
2024/01/26 07:22:53;;;;;;;1.47;1.37;;;9.00;41.00;;;;;;5094223;28;20295;-47
2024/01/26 07:25:19;;;;;;;4.03;1.27;;;9.00;41.00;;;;;;5095047;28;20471;-49
2024/01/26 07:27:46;;;;;;;2.67;0.93;;;9.00;41.10;;;;;;5095113;28;20203;-53
2024/01/26 07:30:13;;;;;;;1.00;0.60;;;9.00;40.90;;;;;;5094767;28;20184;-46
2024/01/26 07:32:40;;;;;;;3.25;1.35;;;9.00;41.10;;;;;;5093696;28;20287;-50
2024/01/26 07:35:06;;;;;;;1.73;0.93;;;9.00;41.00;;;;;;5094705;28;20207;-55
2024/01/26 07:37:32;;;;;;;3.45;2.38;;;9.10;41.20;;;;;;5095040;28;20734;-46
2024/01/26 07:40:00;;;;;;;1.63;1.33;;;9.10;41.30;;;;;;5094772;28;20180;-54
2024/01/26 07:42:26;;;;;;;1.00;0.73;;;9.10;41.20;;;;;;5094020;28;20180;-47
2024/01/26 07:44:52;;;;;;;1.25;0.75;;;9.10;41.20;;;;;;5094556;28;20185;-47
2024/01/26 07:47:18;;;;;;;5.53;4.40;;;9.10;41.30;;;;;;5094485;28;20303;-53
2024/01/26 07:49:44;;;;;;;1.80;1.43;;;9.10;41.30;;;;;;5094464;28;20207;-50
2024/01/26 07:52:09;;;;;;;2.70;2.50;;;9.10;41.50;;;;;;5094115;28;20183;-46
2024/01/26 07:54:35;;;;;;;2.43;2.23;;;9.20;41.40;;;;;;5094367;28;20204;-50
2024/01/26 07:57:01;;;;;;;2.83;1.20;;;9.20;41.20;;;;;;5094393;28;20177;-45
2024/01/26 07:59:27;;;;;;;1.53;0.70;;;9.30;41.30;;;;;;5094346;28;20654;-47
2024/01/26 08:01:52;;;;;;;1.00;0.53;;;9.30;41.30;;;;;;5093532;28;20188;-52
2024/01/26 08:04:18;;;;;;;1.37;0.77;;;9.30;41.10;;;;;;5084759;28;20214;-48
2024/01/26 08:06:44;;;;;;;3.00;1.60;;;9.30;41.10;;;;;;5094176;28;20186;-48
2024/01/26 08:09:10;;;;;;;1.47;1.37;;;9.40;41.00;;;;;;5094036;28;20414;-49
2024/01/26 08:11:36;;;;;;;0.80;0.40;;;9.50;41.10;;;;;;5093587;28;20210;-47
2024/01/26 08:14:02;;;;;;;1.43;1.33;;;9.50;40.90;;;;;;5093663;28;20212;-45
2024/01/26 08:16:28;;;;;;;6.93;2.63;;;9.50;40.80;;;;;;5093945;28;20426;-53
2024/01/26 08:18:54;;;;;;;3.13;1.77;;;9.60;40.80;;;;;;5094138;28;20438;-54
2024/01/26 08:21:20;;;;;;;3.10;2.10;;;9.60;40.60;;;;;;5093483;28;20610;-47
2024/01/26 08:23:46;;;;;;;1.85;1.00;;;9.70;40.70;;;;;;5093745;28;20196;-55
2024/01/26 08:26:12;;;;;;;7.75;1.63;;;9.70;40.50;;;;;;5093758;28;20180;-52
2024/01/26 08:28:38;;;;;;;1.60;1.05;;;9.80;40.50;;;;;;5093776;28;20255;-46
2024/01/26 08:31:05;;;;;;;1.17;0.70;;;9.90;41.20;;;;;;5093062;28;20266;-54
2024/01/26 08:33:31;;;;;;;1.70;1.10;;;10.00;40.30;;;;;;5093349;28;20611;-45
2024/01/26 08:35:57;;;;;;;0.97;0.50;;;10.00;40.20;;;;;;5093785;28;20204;-52
2024/01/26 08:38:23;;;;;;;1.33;0.95;;;10.00;40.20;;;;;;5093503;28;20926;-46
2024/01/26 08:40:49;;;;;;;1.90;1.13;;;10.00;40.10;;;;;;5093084;28;20279;-52
2024/01/26 08:43:15;;;;;;;2.60;1.43;;;10.00;40.00;;;;;;5093545;28;20247;-47
2024/01/26 08:45:41;;;;;;;0.80;0.30;;;10.10;40.20;;;;;;5093237;28;20567;-50
2024/01/26 08:48:07;;;;;;;1.50;0.93;;;10.10;40.30;;;;;;5093496;28;20212;-51
2024/01/26 08:50:33;;;;;;;1.57;1.47;;;10.10;40.20;;;;;;5093230;28;20271;-48
2024/01/26 08:52:58;;;;;;;1.90;1.70;;;10.20;40.80;;;;;;5092828;28;20441;-48
2024/01/26 08:55:24;;;;;;;0.90;0.50;;;10.20;40.10;;;;;;5093405;28;20442;-52
2024/01/26 08:57:50;;;;;;;3.77;3.40;;;10.20;40.00;;;;;;5093167;28;20588;-49
2024/01/26 09:00:19;;;;;;;2.25;1.35;;;10.30;40.00;;;;;;5093055;28;20229;-46
2024/01/26 09:02:45;;;;;;;4.43;1.10;;;10.30;40.00;;;;;;5092680;28;20536;-49
2024/01/26 09:05:11;;;;;;;0.80;0.30;;;10.30;40.00;;;;;;5092890;28;20230;-53
2024/01/26 09:07:38;;;;;;;1.50;1.27;;;10.40;40.10;;;;;;5092995;28;20892;-47
2024/01/26 09:10:05;;;;;;;1.55;1.40;;;10.40;40.10;;;;;;5092908;28;20192;-52
2024/01/26 09:12:32;;;;;;;1.45;1.15;;;10.50;40.10;;;;;;5092305;28;20183;-47
2024/01/26 09:14:58;;;;;;;2.20;1.33;;;10.50;40.00;;;;;;5092810;28;20207;-46
2024/01/26 09:17:24;;;;;;;2.27;0.70;;;10.50;40.10;;;;;;5092764;28;20259;-52
2024/01/26 09:19:50;;;;;;;10.73;2.30;;;10.60;40.30;;;;;;5093019;28;20417;-47
2024/01/26 09:22:16;;;;;;;2.23;1.13;;;10.60;40.40;;;;;;5092070;28;20169;-47
2024/01/26 09:24:42;;;;;;;1.80;1.37;;;10.70;40.50;;;;;;5092599;28;20195;-49
2024/01/26 09:27:07;;;;;;;4.53;2.37;;;10.70;40.50;;;;;;5092730;28;20245;-53
2024/01/26 09:29:33;;;;;;;1.77;1.57;;;10.70;40.40;;;;;;5092645;28;20172;-47
2024/01/26 09:31:59;;;;;;;4.50;1.73;;;10.80;40.40;;;;;;5092177;28;20187;-48
2024/01/26 09:34:25;;;;;;;2.30;0.90;;;10.90;40.30;;;;;;5092265;28;20743;-48
2024/01/26 09:36:51;;;;;;;1.75;1.50;;;10.90;40.30;;;;;;5092577;28;20452;-46
2024/01/26 09:39:17;;;;;;;5.03;2.90;;;10.90;40.30;;;;;;5092337;28;20168;-50
2024/01/26 09:41:43;;;;;;;1.37;1.20;;;10.90;40.50;;;;;;5092062;28;20410;-52
2024/01/26 09:44:10;;;;;;;16.95;2.47;;;11.00;40.60;;;;;;5091997;28;20931;-49
2024/01/26 09:46:36;;;;;;;2.45;2.25;;;11.00;41.00;;;;;;5092610;28;20233;-47
2024/01/26 09:49:06;;;;;;;1.10;0.73;;;11.00;41.00;;;;;;5092149;28;20176;-49
2024/01/26 09:51:32;;;;;;;3.42;2.53;;;11.00;41.00;;;;;;5091788;28;20473;-45
2024/01/26 09:54:00;;;;;;;4.22;0.93;;;11.10;41.20;;;;;;5092124;28;20281;-45
2024/01/26 09:56:27;;;;;;;1.08;0.90;;;11.20;41.10;;;;;;5092147;28;20160;-55
2024/01/26 09:58:53;;;;;;;1.48;1.38;;;11.20;41.10;;;;;;5092123;28;20176;-52
2024/01/26 10:01:23;;;;;;;1.85;1.08;;;11.20;41.30;;;;;;5091567;28;20179;-47
2024/01/26 10:03:52;;;;;;;0.95;0.65;;;11.30;41.10;;;;;;5091921;28;20199;-46
2024/01/26 10:06:19;;;;;;;1.38;0.95;;;11.40;41.30;;;;;;5092264;28;20176;-52
2024/01/26 10:08:45;;;;;;;2.00;1.60;;;11.40;41.50;;;;;;5092100;28;20185;-49
2024/01/26 10:11:11;;;;;;;1.80;1.70;;;11.60;41.60;;;;;;5091596;28;20187;-46
2024/01/26 10:13:37;;;;;;;1.50;0.83;;;11.70;41.50;;;;;;5091955;28;20426;-48
2024/01/26 10:16:13;;;;;;;1.10;0.90;;;11.80;41.20;;;;;;5092045;28;20180;-51
2024/01/26 10:18:46;;;;;;;3.72;1.58;;;11.90;41.20;;;;;;5091925;28;20591;-47
2024/01/26 10:21:13;;;;;;;0.90;0.50;;;12.00;41.00;;;;;;5091372;28;20385;-49
2024/01/26 10:23:40;;;;;;;2.28;0.93;;;12.00;40.90;;;;;;5091552;28;20222;-46
2024/01/26 10:29:28;;;;;;;2.80;1.35;;;12.20;40.80;;;;;;5096278;28;20255;-47
2024/01/26 10:31:54;;;;;;;1.10;0.63;;;12.20;40.90;;;;;;5095654;28;20251;-51
2024/01/26 10:34:19;;;;;;;1.40;1.30;;;12.30;41.00;;;;;;5095552;28;20565;-53
2024/01/26 10:36:47;;;;;;;1.20;0.70;;;12.40;40.90;;;;;;5095879;28;20191;-46
2024/01/26 10:39:24;;;;;;;3.78;1.52;;;12.60;40.90;;;;;;5096047;28;20184;-47
2024/01/26 10:41:57;;;;;;;2.28;0.85;;;12.70;40.80;;;;;;5095496;28;20175;-53
2024/01/26 10:48:37;;;;;;;2.67;1.48;;;13.30;40.40;;;;;;5096677;28;20243;-48
2024/01/26 10:51:04;;;;;;;1.80;1.20;;;13.60;40.00;;;;;;5096032;28;20176;-46
2024/01/26 10:53:31;;;;;;;2.38;2.15;;;13.60;39.70;;;;;;5096564;28;20208;-54
2024/01/26 10:55:58;;;;;;;1.90;1.35;;;13.60;39.70;;;;;;5096436;28;20204;-47
2024/01/26 10:58:25;;;;;;;8.10;1.70;;;13.60;39.80;;;;;;5095512;28;20177;-45
2024/01/26 11:00:51;;;;;;;15.75;2.05;;;13.80;39.50;;;;;;5094945;28;20168;-54
2024/01/26 11:03:17;;;;;;;2.05;1.05;;;13.90;39.80;;;;;;5095227;28;20277;-49
2024/01/26 11:05:50;;;;;;;2.60;2.40;;;14.00;39.60;;;;;;5095286;28;20203;-51
2024/01/26 11:08:24;;;;;;;10.07;1.50;;;14.10;39.60;;;;;;5095603;28;20471;-50
2024/01/26 11:10:52;;;;;;;5.57;2.67;;;14.10;39.50;;;;;;5094925;28;20253;-45
2024/01/26 11:13:18;;;;;;;2.30;1.60;;;14.20;39.10;;;;;;5095187;28;20227;-46
2024/01/26 11:15:46;;;;;;;3.47;1.60;;;14.30;39.40;;;;;;5094985;28;20566;-50
2024/01/26 11:18:25;;;;;;;1.10;0.95;;;14.50;39.40;;;;;;5094968;28;20959;-46
2024/01/26 11:20:51;;;;;;;1.70;0.95;;;14.60;39.30;;;;;;5094513;28;20233;-55
2024/01/26 11:23:17;;;;;;;2.87;2.17;;;14.60;39.20;;;;;;5095051;28;20196;-49
2024/01/26 11:25:45;;;;;;;1.75;1.13;;;14.60;39.00;;;;;;5094923;28;20501;-50
2024/01/26 11:28:17;;;;;;;1.73;1.50;;;14.50;39.10;;;;;;5094797;28;20253;-52
2024/01/26 11:30:52;;;;;;;2.97;1.83;;;14.50;39.40;;;;;;5095113;28;20176;-49
2024/01/26 11:33:21;;;;;;;2.85;1.58;;;14.40;39.50;;;;;;5094692;28;20212;-47
2024/01/26 11:35:48;;;;;;;18.08;2.35;;;14.40;39.60;;;;;;5094787;28;20231;-53
2024/01/26 11:38:14;;;;;;;1.00;0.73;;;14.40;39.60;;;;;;5094660;28;20173;-47
2024/01/26 11:40:40;;;;;;;2.28;1.05;;;14.40;39.70;;;;;;5094832;28;20179;-49
2024/01/26 11:43:07;;;;;;;1.85;0.65;;;14.40;39.70;;;;;;5094317;28;20192;-52
2024/01/26 11:45:46;;;;;;;2.97;1.20;;;14.50;39.70;;;;;;5094740;28;20287;-47
2024/01/26 11:48:14;;;;;;;2.10;1.25;;;14.50;39.90;;;;;;5094798;28;20229;-50
2024/01/26 11:50:44;;;;;;;2.05;1.70;;;14.50;39.90;;;;;;5094511;28;20700;-56
2024/01/26 11:53:13;;;;;;;1.83;1.70;;;14.50;39.90;;;;;;5094593;28;20288;-47
2024/01/26 11:55:39;;;;;;;2.25;1.30;;;14.60;39.90;;;;;;5094438;28;20204;-53
2024/01/26 11:58:08;;;;;;;1.40;0.80;;;14.70;40.10;;;;;;5094564;28;20196;-52
2024/01/26 12:00:35;;;;;;;1.73;1.20;;;14.80;40.30;;;;;;5094351;28;20168;-46
2024/01/26 12:03:05;;;;;;;1.20;0.98;;;14.90;40.20;;;;;;5093689;28;20200;-50
2024/01/26 12:05:33;;;;;;;6.03;1.40;;;14.90;40.50;;;;;;5094213;28;20169;-51
2024/01/26 12:08:00;;;;;;;1.02;0.70;;;15.00;40.40;;;;;;5094388;28;20180;-48
2024/01/26 12:10:25;;;;;;;1.00;0.70;;;15.00;40.50;;;;;;5094458;28;20203;-47
2024/01/26 12:12:51;;;;;;;1.30;0.90;;;15.10;40.80;;;;;;5093601;28;20223;-52
2024/01/26 12:15:17;;;;;;;1.67;0.93;;;15.20;41.20;;;;;;5094107;28;20234;-47
2024/01/26 12:17:46;;;;;;;2.28;1.67;;;15.20;40.40;;;;;;5093927;28;20891;-48
2024/01/26 12:20:12;;;;;;;1.40;0.90;;;15.20;40.20;;;;;;5094130;28;20176;-51
2024/01/26 12:22:38;;;;;;;1.00;0.50;;;15.30;40.40;;;;;;5093353;28;20530;-46
2024/01/26 12:25:06;;;;;;;1.00;0.60;;;15.20;40.90;;;;;;5093780;28;20407;-48
2024/01/26 12:27:33;;;;;;;1.25;0.90;;;15.30;41.10;;;;;;5093774;28;20665;-56
2024/01/26 12:29:59;;;;;;;0.93;0.50;;;15.40;41.00;;;;;;5093740;28;20188;-47
2024/01/26 12:32:25;;;;;;;1.93;1.10;;;15.50;41.00;;;;;;5092872;28;20172;-51
2024/01/26 12:34:51;;;;;;;0.90;0.40;;;15.50;40.90;;;;;;5093221;28;20449;-53
2024/01/26 12:37:17;;;;;;;1.43;1.07;;;15.40;40.70;;;;;;5093937;28;20418;-48
2024/01/26 12:39:42;;;;;;;1.00;0.40;;;15.40;40.80;;;;;;5093635;28;20602;-51
2024/01/26 12:42:08;;;;;;;0.93;0.47;;;15.40;40.80;;;;;;5093184;28;20180;-53
2024/01/26 12:44:36;;;;;;;1.20;0.40;;;15.40;40.80;;;;;;5093316;28;20196;-46
2024/01/26 12:47:03;;;;;;;0.93;0.38;;;15.40;40.80;;;;;;5093305;28;20184;-54
2024/01/26 12:49:32;;;;;;;1.20;0.63;;;15.40;41.00;;;;;;5092697;28;20604;-55
2024/01/26 12:51:58;;;;;;;1.90;1.30;;;15.30;41.20;;;;;;5092778;28;20267;-50
2024/01/26 12:54:24;;;;;;;1.10;0.68;;;15.40;41.10;;;;;;5093175;28;20578;-52
2024/01/26 12:56:50;;;;;;;1.00;0.80;;;15.40;41.10;;;;;;5093181;28;20177;-48